This is the latest recevied weather packets stored in our database for station/object DK1ZX-10. If no packets are shown the sender has not sent any weather packets the latest 1 day(s).
| Time | Temp. | Humidity | Pressure | Rain* | Wind** | Luminosity | Snow |
|---|---|---|---|---|---|---|---|
| 1778069282 | 25.56° C | 29% | 1006.1 hPa | - | - | - | - |
| 1778066881 | 25° C | 30% | 1006.7 hPa | - | - | - | - |
| 1778064481 | 28.89° C | 25% | 1007.2 hPa | - | - | - | - |
| 1778063281 | 27.78° C | 27% | 1007.4 hPa | - | - | - | - |
| 1778062081 | 26.67° C | 30% | 1007.4 hPa | - | - | - | - |
| 1778060881 | 27.78° C | 28% | 1007.6 hPa | - | - | - | - |
| 1778052480 | 34.44° C | 20% | 1008.1 hPa | - | - | - | - |
| 1778051280 | 37.22° C | 18% | 1007.9 hPa | - | - | - | - |
| 1778050080 | 35° C | 20% | 1008.1 hPa | - | - | - | - |
| 1778048880 | 40.56° C | 14% | 1008 hPa | - | - | - | - |
| 1778047680 | 31.11° C | 27% | 1007.9 hPa | - | - | - | - |
| 1778046480 | 19.44° C | 47% | 1008.3 hPa | - | - | - | - |
| 1778045280 | 17.78° C | 52% | 1008.2 hPa | - | - | - | - |
| 1778044080 | 16.67° C | 58% | 1008.3 hPa | - | - | - | - |
| 1778042879 | 13.33° C | 67% | 1008.4 hPa | - | - | - | - |
| 1778041679 | 12.22° C | 71% | 1008.4 hPa | - | - | - | - |
| 1778009481 | 15° C | 69% | 1007.4 hPa | - | - | - | - |
| 1777993880 | 27.22° C | 22% | 1004.5 hPa | - | - | - | - |
| 1777992680 | 28.33° C | 20% | 1004.6 hPa | - | - | - | - |
| 1777991480 | 28.33° C | 19% | 1004.8 hPa | - | - | - | - |
| 1777990280 | 28.89° C | 19% | 1004.9 hPa | - | - | - | - |
* Rain since midnight (hover to see other rain measurements)
** Current wind speed in m/s (hover to see current wind gust speed)